Time;durP1;ratioP1;P1;durP2;ratioP2;P2;SDS_P1;SDS_P2;PMS_P1;PMS_P2;Temp;Humidity;BMP_temperature;BMP_pressure;BME280_temperature;BME280_humidity;BME280_pressure;Samples;Min_cycle;Max_cycle;Signal;HPM_P1;HPM_P2
2022/07/09 00:00:28;;;;;;;7.80;2.13;;;23.40;87.00;;;;;;5116882;28;20067;-66
2022/07/09 00:02:54;;;;;;;5.53;2.40;;;23.40;86.70;;;;;;5097433;28;20146;-67
2022/07/09 00:05:19;;;;;;;4.68;2.20;;;23.50;89.80;;;;;;5106041;28;20081;-67
2022/07/09 00:07:45;;;;;;;5.55;2.10;;;23.20;90.00;;;;;;5115952;28;20040;-67
2022/07/09 00:10:11;;;;;;;5.28;2.03;;;23.40;90.00;;;;;;5116681;28;20050;-63
2022/07/09 00:12:37;;;;;;;7.50;2.20;;;23.20;89.50;;;;;;5115801;28;20039;-62
2022/07/09 00:15:03;;;;;;;7.70;2.28;;;23.30;89.70;;;;;;5116476;28;20039;-67
2022/07/09 00:17:31;;;;;;;4.25;1.92;;;23.40;89.60;;;;;;5096482;28;20481;-67
2022/07/09 00:19:57;;;;;;;5.10;2.35;;;23.20;89.60;;;;;;5098793;28;20074;-67
2022/07/09 00:22:23;;;;;;;5.50;2.20;;;23.20;89.90;;;;;;5097937;28;20126;-67
2022/07/09 00:24:49;;;;;;;6.75;2.50;;;23.30;89.60;;;;;;5114979;28;20405;-67
2022/07/09 00:27:14;;;;;;;4.85;2.28;;;23.40;86.90;;;;;;5113355;28;20126;-67
2022/07/09 00:29:40;;;;;;;6.53;2.60;;;23.50;89.90;;;;;;5116019;28;20388;-68
2022/07/09 00:32:06;;;;;;;5.40;2.47;;;23.50;90.00;;;;;;5115591;28;20048;-67
2022/07/09 00:34:33;;;;;;;4.63;2.20;;;23.30;89.60;;;;;;5080998;28;20127;-67
2022/07/09 00:36:59;;;;;;;5.15;2.28;;;23.30;89.50;;;;;;5113602;28;20489;-61
2022/07/09 00:39:25;;;;;;;4.68;2.25;;;23.50;86.70;;;;;;5116110;28;20039;-67
2022/07/09 00:42:01;;;;;;;4.90;2.00;;;23.60;89.80;;;;;;5116117;28;20050;-67
2022/07/09 00:44:27;;;;;;;5.57;2.15;;;;;;;;;;5114501;28;20079;-67
2022/07/09 00:46:52;;;;;;;5.90;2.53;;;23.40;89.60;;;;;;5114991;28;20070;-67
2022/07/09 00:49:18;;;;;;;4.40;2.35;;;23.20;89.60;;;;;;5114683;28;20105;-67
2022/07/09 00:51:44;;;;;;;4.82;2.05;;;23.50;90.10;;;;;;5081019;28;20067;-67
2022/07/09 00:54:09;;;;;;;5.13;2.15;;;23.30;90.00;;;;;;5072157;28;20036;-67
2022/07/09 00:56:35;;;;;;;4.05;1.92;;;23.30;89.60;;;;;;5074176;28;20048;-67
2022/07/09 00:59:02;;;;;;;5.68;2.65;;;23.50;89.60;;;;;;5114394;28;20457;-67
2022/07/09 01:01:28;;;;;;;4.88;1.90;;;23.20;89.50;;;;;;5097360;28;20047;-67
2022/07/09 01:03:54;;;;;;;5.40;2.30;;;23.40;86.60;;;;;;5103031;28;20044;-68
2022/07/09 01:06:20;;;;;;;5.03;2.35;;;23.20;89.80;;;;;;5095231;28;20036;-67
2022/07/09 01:08:45;;;;;;;4.93;2.42;;;23.20;89.50;;;;;;5105192;28;20040;-67
2022/07/09 01:11:11;;;;;;;4.95;2.47;;;23.20;89.40;;;;;;5095084;28;20044;-67
2022/07/09 01:13:37;;;;;;;5.93;2.30;;;23.20;89.50;;;;;;5090855;28;20389;-67
2022/07/09 01:16:03;;;;;;;6.28;2.10;;;23.40;89.50;;;;;;5113192;28;20047;-67
2022/07/09 01:18:28;;;;;;;5.45;2.40;;;23.30;89.40;;;;;;5097577;28;20092;-68
2022/07/09 01:20:54;;;;;;;4.25;2.17;;;23.10;89.70;;;;;;5115349;28;20148;-68
2022/07/09 01:23:20;;;;;;;6.93;2.65;;;23.40;87.40;;;;;;5114947;28;20048;-67
2022/07/09 01:25:45;;;;;;;5.55;2.75;;;23.40;89.40;;;;;;5114079;28;20404;-67
2022/07/09 01:28:11;;;;;;;5.68;2.17;;;23.10;86.40;;;;;;5097052;28;20039;-67
2022/07/09 01:30:38;;;;;;;9.35;2.60;;;23.50;89.60;;;;;;5094900;28;20035;-67
2022/07/09 01:33:04;;;;;;;6.35;2.30;;;23.40;86.90;;;;;;5115125;28;20118;-67
2022/07/09 01:35:29;;;;;;;6.15;2.17;;;23.30;89.40;;;;;;5114720;28;20122;-67
2022/07/09 01:37:55;;;;;;;4.93;2.00;;;23.50;86.60;;;;;;5096774;28;20116;-67
2022/07/09 01:40:21;;;;;;;6.97;2.47;;;23.30;89.30;;;;;;5112025;28;20167;-67
2022/07/09 01:42:47;;;;;;;5.93;2.50;;;;;;;;;;5114941;28;20397;-67
2022/07/09 01:45:14;;;;;;;5.35;2.28;;;23.30;89.60;;;;;;5114833;28;20458;-63
2022/07/09 01:47:40;;;;;;;6.20;2.20;;;23.40;89.40;;;;;;5082412;28;20044;-62
2022/07/09 01:50:07;;;;;;;4.40;1.98;;;23.10;89.10;;;;;;5111785;28;20051;-61
2022/07/09 01:52:32;;;;;;;7.70;2.20;;;23.40;89.50;;;;;;5112339;28;20046;-67
2022/07/09 01:54:58;;;;;;;5.22;1.98;;;23.20;89.40;;;;;;5114607;28;20420;-67
2022/07/09 01:57:24;;;;;;;6.55;2.20;;;23.30;89.60;;;;;;5114672;28;20150;-68
2022/07/09 01:59:50;;;;;;;4.95;2.30;;;23.20;89.40;;;;;;5113473;28;20039;-68
2022/07/09 02:02:15;;;;;;;5.57;2.30;;;23.40;86.70;;;;;;5113234;28;20031;-68
2022/07/09 02:04:41;;;;;;;6.07;2.10;;;23.30;86.50;;;;;;5114084;28;20058;-68
2022/07/09 02:07:07;;;;;;;3.53;2.05;;;23.50;89.50;;;;;;5114324;28;20054;-63
2022/07/09 02:09:32;;;;;;;4.43;2.20;;;23.20;89.40;;;;;;5094544;28;20092;-62
2022/07/09 02:11:58;;;;;;;6.43;2.20;;;23.20;89.40;;;;;;5097345;28;20047;-67
2022/07/09 02:14:24;;;;;;;5.05;2.55;;;;;;;;;;5114427;28;20052;-69
2022/07/09 02:16:50;;;;;;;5.65;2.90;;;23.20;89.30;;;;;;5113512;28;20126;-68
2022/07/09 02:19:16;;;;;;;8.38;2.65;;;23.30;89.40;;;;;;5114258;28;20111;-68
2022/07/09 02:21:41;;;;;;;6.43;3.08;;;23.30;86.50;;;;;;5114085;28;20039;-68
2022/07/09 02:24:07;;;;;;;6.65;2.97;;;23.30;86.40;;;;;;5112457;28;20439;-68
2022/07/09 02:26:33;;;;;;;6.30;2.85;;;23.10;89.60;;;;;;5113919;28;20104;-67
2022/07/09 02:28:59;;;;;;;6.45;3.00;;;23.70;90.00;;;;;;5114178;28;20104;-68
2022/07/09 02:31:25;;;;;;;9.60;3.20;;;23.30;89.40;;;;;;5114110;28;20516;-63
2022/07/09 02:33:51;;;;;;;7.90;3.40;;;23.30;89.40;;;;;;5112420;28;20042;-63
2022/07/09 02:36:17;;;;;;;4.40;2.40;;;23.30;89.40;;;;;;5113349;28;20480;-63
2022/07/09 02:38:42;;;;;;;6.15;2.88;;;23.40;89.70;;;;;;5113285;28;20039;-68
2022/07/09 02:41:08;;;;;;;6.90;2.90;;;23.30;89.80;;;;;;5113759;28;20396;-67
2022/07/09 02:43:34;;;;;;;7.03;2.90;;;23.20;89.30;;;;;;5113094;28;20055;-67
2022/07/09 02:46:00;;;;;;;8.43;2.83;;;23.30;89.50;;;;;;5094681;28;20055;-68
2022/07/09 02:48:26;;;;;;;7.35;3.10;;;23.30;89.50;;;;;;5115328;28;20070;-68
2022/07/09 02:50:52;;;;;;;5.88;2.75;;;23.20;89.80;;;;;;5117948;28;20035;-68
2022/07/09 02:53:18;;;;;;;7.78;2.60;;;23.40;89.80;;;;;;5099701;28;20050;-68
2022/07/09 02:55:44;;;;;;;7.82;3.00;;;23.10;89.60;;;;;;5113164;28;20035;-67
2022/07/09 02:58:10;;;;;;;5.82;2.50;;;23.20;89.40;;;;;;5117699;28;20036;-68
2022/07/09 03:00:36;;;;;;;6.78;2.70;;;23.30;89.90;;;;;;5118076;28;20031;-67
2022/07/09 03:03:02;;;;;;;11.30;3.10;;;23.10;86.70;;;;;;5118034;28;20044;-67
2022/07/09 03:05:28;;;;;;;7.85;3.10;;;23.30;89.80;;;;;;5116607;28;20425;-67
2022/07/09 03:07:54;;;;;;;6.88;2.83;;;;;;;;;;5098819;28;20063;-67
2022/07/09 03:10:20;;;;;;;5.78;2.75;;;23.40;89.60;;;;;;5117871;28;20044;-68
2022/07/09 03:12:46;;;;;;;7.57;2.85;;;23.40;86.80;;;;;;5117387;28;20469;-67
2022/07/09 03:15:14;;;;;;;8.88;2.95;;;23.40;89.70;;;;;;5117344;28;20134;-67
2022/07/09 03:17:40;;;;;;;5.60;2.47;;;23.40;89.70;;;;;;5116365;28;20459;-68
2022/07/09 03:20:06;;;;;;;6.10;2.88;;;23.30;89.80;;;;;;5117696;28;20079;-68
2022/07/09 03:22:32;;;;;;;5.55;2.72;;;23.00;89.40;;;;;;5116457;28;20050;-66
2022/07/09 03:24:57;;;;;;;10.13;3.33;;;23.20;86.50;;;;;;5116577;28;20043;-68
2022/07/09 03:27:23;;;;;;;6.70;3.17;;;23.40;89.80;;;;;;5116181;28;20049;-67
2022/07/09 03:29:50;;;;;;;9.82;3.92;;;23.10;89.70;;;;;;5117365;28;20112;-68
2022/07/09 03:32:16;;;;;;;7.70;4.13;;;23.40;87.00;;;;;;5117469;28;20044;-68
2022/07/09 03:34:42;;;;;;;9.40;4.35;;;23.30;90.10;;;;;;5117441;28;20047;-67
2022/07/09 03:37:08;;;;;;;7.47;4.45;;;23.50;89.90;;;;;;5115656;28;20389;-67
2022/07/09 03:39:34;;;;;;;7.97;4.35;;;23.20;90.00;;;;;;5117555;28;20040;-67
2022/07/09 03:42:00;;;;;;;8.80;4.53;;;23.30;89.80;;;;;;5116566;28;20481;-67
2022/07/09 03:44:26;;;;;;;8.00;4.63;;;23.20;89.80;;;;;;5117557;28;20044;-68
2022/07/09 03:46:52;;;;;;;7.43;4.38;;;23.20;89.60;;;;;;5117024;28;20443;-68
2022/07/09 03:49:18;;;;;;;7.72;4.72;;;;;;;;;;5097411;28;20047;-69
2022/07/09 03:51:44;;;;;;;8.35;4.65;;;23.50;90.20;;;;;;5117099;28;20114;-63
2022/07/09 03:54:10;;;;;;;8.68;4.50;;;23.40;87.00;;;;;;5117562;28;20516;-63
2022/07/09 03:56:36;;;;;;;8.82;4.15;;;23.30;89.80;;;;;;5116909;28;20048;-64
2022/07/09 03:59:02;;;;;;;7.85;4.20;;;23.10;89.80;;;;;;5114459;28;20496;-67
2022/07/09 04:01:27;;;;;;;6.72;3.90;;;23.40;89.90;;;;;;5116601;28;20160;-68
2022/07/09 04:03:53;;;;;;;7.10;4.05;;;23.30;86.80;;;;;;5116360;28;20075;-68
2022/07/09 04:06:20;;;;;;;9.80;4.88;;;23.20;89.70;;;;;;5116820;28;20040;-68
2022/07/09 04:08:46;;;;;;;8.57;4.38;;;23.40;89.90;;;;;;5115636;28;20412;-67
2022/07/09 04:11:12;;;;;;;7.10;3.90;;;23.30;90.00;;;;;;5115846;28;20044;-68
2022/07/09 04:13:37;;;;;;;8.05;4.13;;;23.30;90.10;;;;;;5117238;28;20046;-68
2022/07/09 04:16:04;;;;;;;9.70;3.85;;;23.30;89.70;;;;;;5116151;28;20083;-68
2022/07/09 04:18:29;;;;;;;8.27;3.47;;;23.30;89.70;;;;;;5114844;28;20100;-63
2022/07/09 04:20:56;;;;;;;8.02;3.88;;;23.10;89.60;;;;;;5115098;28;20122;-63
2022/07/09 04:23:23;;;;;;;6.80;3.63;;;23.10;89.70;;;;;;5114844;28;20432;-67
2022/07/09 04:25:50;;;;;;;6.03;2.90;;;23.20;90.00;;;;;;5116142;28;20059;-67
2022/07/09 04:28:18;;;;;;;6.75;3.05;;;23.40;90.10;;;;;;5116957;28;20131;-68
2022/07/09 04:30:44;;;;;;;5.90;3.67;;;23.30;89.80;;;;;;5114433;28;20058;-67
2022/07/09 04:33:10;;;;;;;6.78;4.45;;;23.20;86.90;;;;;;5097395;28;20132;-67
2022/07/09 04:35:36;;;;;;;11.95;5.00;;;23.20;86.80;;;;;;5115291;28;20075;-67
2022/07/09 04:38:02;;;;;;;9.48;4.65;;;23.40;86.90;;;;;;5080975;28;20040;-68
2022/07/09 04:40:28;;;;;;;9.77;4.28;;;23.10;89.50;;;;;;5095804;28;20456;-67
2022/07/09 04:42:54;;;;;;;9.10;4.55;;;23.50;89.80;;;;;;5115183;28;20058;-67
2022/07/09 04:45:20;;;;;;;6.40;4.05;;;23.40;89.80;;;;;;5097234;28;20046;-68
2022/07/09 04:47:45;;;;;;;8.68;4.70;;;23.20;89.70;;;;;;5095575;28;20036;-67
2022/07/09 04:50:11;;;;;;;8.27;3.88;;;23.40;89.90;;;;;;5095578;28;20504;-67
2022/07/09 04:52:38;;;;;;;8.57;4.43;;;23.30;89.70;;;;;;5107895;28;20558;-68
2022/07/09 04:55:04;;;;;;;8.05;4.30;;;23.20;86.90;;;;;;5080847;28;20052;-67
2022/07/09 04:57:30;;;;;;;7.43;3.50;;;23.40;90.00;;;;;;5095396;28;20044;-68
2022/07/09 05:00:00;;;;;;;9.77;4.03;;;23.30;89.90;;;;;;5095389;28;20385;-68
2022/07/09 05:02:26;;;;;;;6.85;3.70;;;23.50;89.90;;;;;;5100263;28;20122;-63
2022/07/09 05:04:52;;;;;;;7.63;4.10;;;23.20;86.90;;;;;;5113935;28;20044;-63
2022/07/09 05:07:17;;;;;;;6.55;3.28;;;23.30;89.70;;;;;;5115106;28;20499;-63
2022/07/09 05:09:43;;;;;;;6.30;3.65;;;23.30;89.70;;;;;;5115002;28;20082;-67
2022/07/09 05:12:10;;;;;;;8.15;3.85;;;23.40;90.00;;;;;;5114807;28;20127;-68
2022/07/09 05:14:38;;;;;;;7.03;3.50;;;23.40;90.10;;;;;;5114553;28;20047;-67
2022/07/09 05:17:05;;;;;;;7.47;3.63;;;23.50;89.90;;;;;;5114922;28;20181;-67
2022/07/09 05:19:31;;;;;;;5.63;3.60;;;23.50;90.00;;;;;;5109011;28;20089;-67
2022/07/09 05:21:57;;;;;;;6.95;3.97;;;23.50;89.80;;;;;;5109976;28;20035;-67
2022/07/09 05:24:23;;;;;;;5.85;4.18;;;23.20;89.60;;;;;;5113762;28;20058;-67
2022/07/09 05:26:48;;;;;;;7.20;4.45;;;23.50;86.70;;;;;;5097108;28;20043;-68
2022/07/09 05:29:14;;;;;;;6.65;4.13;;;23.40;89.60;;;;;;5115045;28;20469;-68
2022/07/09 05:31:40;;;;;;;8.63;4.50;;;23.60;89.80;;;;;;5114320;28;20385;-62
2022/07/09 05:34:07;;;;;;;6.55;4.45;;;23.50;89.60;;;;;;5113857;28;20048;-64
2022/07/09 05:36:33;;;;;;;8.63;4.43;;;23.50;89.80;;;;;;5114860;28;20048;-67
2022/07/09 05:39:00;;;;;;;8.68;4.75;;;23.60;89.70;;;;;;5114718;28;20476;-67
2022/07/09 05:41:26;;;;;;;7.80;4.53;;;23.40;89.80;;;;;;5114939;28;20437;-69
2022/07/09 05:43:52;;;;;;;6.63;4.05;;;23.40;89.70;;;;;;5114220;28;20071;-68
2022/07/09 05:46:18;;;;;;;9.27;4.72;;;23.50;89.70;;;;;;5113739;28;20086;-67
2022/07/09 05:48:44;;;;;;;7.90;4.22;;;23.40;89.80;;;;;;5114811;28;20071;-68
2022/07/09 05:51:11;;;;;;;6.78;4.00;;;23.30;86.00;;;;;;5114379;28;20048;-67
2022/07/09 05:53:37;;;;;;;6.43;4.07;;;23.60;89.70;;;;;;5113814;28;20484;-68
2022/07/09 05:56:03;;;;;;;6.38;4.00;;;23.80;86.90;;;;;;5112656;28;20095;-67
2022/07/09 05:58:29;;;;;;;6.57;4.10;;;23.60;90.00;;;;;;5113889;28;20039;-68
2022/07/09 06:00:55;;;;;;;5.47;3.50;;;;;;;;;;5115045;28;20043;-67
2022/07/09 06:03:21;;;;;;;7.40;3.70;;;23.80;89.80;;;;;;5113237;28;20075;-68
2022/07/09 06:05:47;;;;;;;6.28;3.47;;;23.70;89.60;;;;;;5113339;28;20484;-67
2022/07/09 06:08:12;;;;;;;6.50;3.72;;;23.80;86.70;;;;;;5109041;28;20039;-63
2022/07/09 06:10:38;;;;;;;7.65;3.60;;;23.70;86.60;;;;;;5105728;28;20558;-63
2022/07/09 06:13:04;;;;;;;6.03;3.33;;;23.70;86.70;;;;;;5093733;28;20079;-63
2022/07/09 06:15:30;;;;;;;5.22;3.10;;;23.80;86.10;;;;;;5108162;28;20032;-66
2022/07/09 06:17:56;;;;;;;5.20;3.05;;;;;;;;;;5113269;28;20197;-67
2022/07/09 06:20:21;;;;;;;7.95;3.65;;;23.80;89.60;;;;;;5113404;28;20082;-68
2022/07/09 06:22:47;;;;;;;5.47;3.05;;;23.80;86.60;;;;;;5113492;28;20090;-68
2022/07/09 06:25:13;;;;;;;6.72;3.20;;;23.70;86.60;;;;;;5113748;28;20047;-67
2022/07/09 06:27:41;;;;;;;5.30;3.00;;;;;;;;;;5110912;28;20048;-68
2022/07/09 06:30:08;;;;;;;5.53;3.10;;;23.60;89.60;;;;;;5102966;28;20127;-68
2022/07/09 06:32:34;;;;;;;5.55;3.15;;;23.90;89.50;;;;;;5093813;28;20417;-69
2022/07/09 06:35:00;;;;;;;5.78;2.75;;;23.90;89.40;;;;;;5075854;28;20055;-69
2022/07/09 06:37:26;;;;;;;5.15;2.90;;;23.80;89.80;;;;;;5103999;28;20049;-69
2022/07/09 06:39:55;;;;;;;6.18;3.00;;;23.90;86.80;;;;;;5093752;28;20418;-69
2022/07/09 06:42:21;;;;;;;6.85;2.90;;;23.80;89.40;;;;;;5093371;28;20051;-63
2022/07/09 06:44:47;;;;;;;5.75;3.30;;;23.80;89.50;;;;;;5093683;28;20044;-62
2022/07/09 06:47:13;;;;;;;5.28;2.90;;;;;;;;;;5103510;28;21039;-69
2022/07/09 06:49:39;;;;;;;5.88;2.70;;;23.90;84.80;;;;;;5113510;28;20093;-69
2022/07/09 06:52:05;;;;;;;6.05;2.47;;;23.90;89.60;;;;;;5110997;28;20505;-68
2022/07/09 06:54:30;;;;;;;6.15;2.65;;;24.10;89.90;;;;;;5113972;28;20113;-68
2022/07/09 06:56:56;;;;;;;4.00;2.30;;;23.90;86.60;;;;;;5113825;28;20482;-68
2022/07/09 06:59:23;;;;;;;6.57;2.40;;;23.90;89.50;;;;;;5112197;28;20397;-69
2022/07/09 07:01:49;;;;;;;5.72;2.60;;;23.80;89.40;;;;;;5112547;28;20126;-67
2022/07/09 07:04:15;;;;;;;4.47;2.65;;;;;;;;;;5095276;28;20441;-68
2022/07/09 07:06:41;;;;;;;5.65;2.55;;;23.70;84.70;;;;;;5095280;28;20511;-68
2022/07/09 07:09:08;;;;;;;5.43;2.45;;;23.80;89.40;;;;;;5113646;28;20039;-68
2022/07/09 07:11:34;;;;;;;4.50;2.20;;;23.90;86.70;;;;;;5113774;28;20047;-68
2022/07/09 07:14:00;;;;;;;5.07;2.55;;;24.20;86.80;;;;;;5111836;28;20119;-68
2022/07/09 07:16:25;;;;;;;8.15;2.75;;;23.90;89.70;;;;;;5113285;28;20044;-68
2022/07/09 07:18:51;;;;;;;4.88;2.53;;;24.00;86.60;;;;;;5109054;28;20036;-62
2022/07/09 07:21:17;;;;;;;5.28;2.33;;;24.00;89.40;;;;;;5093364;28;20048;-62
2022/07/09 07:23:43;;;;;;;5.05;2.65;;;24.10;86.70;;;;;;5098393;28;20451;-68
2022/07/09 07:26:09;;;;;;;6.00;2.47;;;24.20;89.50;;;;;;5112653;28;20118;-67
2022/07/09 07:28:35;;;;;;;4.78;2.60;;;24.00;89.50;;;;;;5113644;28;20058;-64
2022/07/09 07:31:00;;;;;;;6.45;2.65;;;24.00;86.40;;;;;;5094355;28;20058;-71
2022/07/09 07:33:26;;;;;;;6.93;3.05;;;24.10;89.90;;;;;;5114301;28;20112;-71
2022/07/09 07:35:52;;;;;;;5.30;2.38;;;24.10;86.30;;;;;;5115295;28;20393;-71
2022/07/09 07:38:18;;;;;;;8.52;2.42;;;24.00;86.40;;;;;;5098621;28;20116;-61
2022/07/09 07:40:43;;;;;;;7.70;2.60;;;24.20;86.20;;;;;;5117328;28;20048;-61
2022/07/09 07:43:12;;;;;;;6.60;2.47;;;24.40;89.30;;;;;;5114941;28;20039;-61
2022/07/09 07:45:38;;;;;;;4.93;2.35;;;24.30;89.20;;;;;;5106162;28;20557;-62
2022/07/09 07:48:04;;;;;;;7.15;2.50;;;24.00;88.00;;;;;;5096801;28;20119;-70
2022/07/09 07:50:30;;;;;;;9.80;2.67;;;24.20;85.90;;;;;;5096472;28;20048;-71
2022/07/09 07:52:56;;;;;;;8.38;2.67;;;24.40;86.40;;;;;;5096379;28;20451;-71
2022/07/09 07:55:22;;;;;;;4.95;2.70;;;24.40;89.10;;;;;;5097723;28;20402;-71
2022/07/09 07:57:48;;;;;;;5.95;2.55;;;24.60;89.10;;;;;;5116239;28;20043;-71
2022/07/09 08:00:14;;;;;;;5.75;2.38;;;24.60;88.90;;;;;;5115294;28;20040;-69
2022/07/09 08:02:39;;;;;;;4.88;2.33;;;24.40;85.90;;;;;;5116883;28;20044;-65
2022/07/09 08:05:06;;;;;;;6.63;2.42;;;24.50;86.00;;;;;;5097517;28;20040;-70
2022/07/09 08:07:32;;;;;;;7.20;2.72;;;24.70;85.50;;;;;;5114280;28;20112;-70
2022/07/09 08:09:58;;;;;;;6.82;2.60;;;24.40;85.80;;;;;;5116720;28;20043;-71
2022/07/09 08:12:24;;;;;;;5.60;2.53;;;24.60;85.90;;;;;;5098224;28;20052;-69
2022/07/09 08:14:49;;;;;;;5.75;2.40;;;24.50;85.60;;;;;;5116598;28;20102;-62
2022/07/09 08:17:15;;;;;;;5.47;2.22;;;24.60;88.80;;;;;;5114379;28;20076;-61
2022/07/09 08:19:41;;;;;;;4.47;2.25;;;24.70;85.50;;;;;;5116271;28;20062;-61
2022/07/09 08:22:07;;;;;;;8.05;2.65;;;24.60;85.30;;;;;;5116185;28;20052;-60
2022/07/09 08:24:33;;;;;;;6.47;2.40;;;24.60;88.50;;;;;;5098049;28;20079;-61
2022/07/09 08:26:59;;;;;;;4.38;2.20;;;24.70;88.20;;;;;;5114400;28;20051;-61
2022/07/09 08:29:25;;;;;;;5.07;2.20;;;24.60;88.60;;;;;;5115498;28;20390;-62
2022/07/09 08:31:51;;;;;;;6.15;2.30;;;24.70;85.30;;;;;;5116354;28;20044;-61
2022/07/09 08:34:17;;;;;;;4.20;2.08;;;25.00;88.00;;;;;;5114936;28;20119;-61
2022/07/09 08:36:43;;;;;;;5.32;2.60;;;24.80;85.10;;;;;;5115152;28;20040;-60
2022/07/09 08:39:08;;;;;;;4.45;2.20;;;25.00;84.90;;;;;;5114948;28;20039;-61
2022/07/09 08:41:34;;;;;;;5.15;2.33;;;24.90;84.60;;;;;;5115845;28;20036;-61
2022/07/09 08:44:01;;;;;;;6.45;2.35;;;24.90;84.50;;;;;;5114605;28;20039;-70
2022/07/09 08:46:27;;;;;;;5.18;2.20;;;25.10;87.80;;;;;;5096499;28;20083;-62
2022/07/09 08:48:52;;;;;;;7.15;2.38;;;25.10;84.40;;;;;;5095379;28;20071;-62
2022/07/09 08:51:19;;;;;;;4.43;2.20;;;25.10;84.50;;;;;;5064052;28;20100;-62
2022/07/09 08:53:45;;;;;;;7.68;2.45;;;25.10;86.90;;;;;;5112800;28;20123;-70
2022/07/09 08:56:11;;;;;;;4.80;2.25;;;25.20;84.20;;;;;;5114198;28;20143;-71
2022/07/09 08:58:40;;;;;;;4.35;2.03;;;25.30;84.30;;;;;;5115857;28;20043;-63
2022/07/09 09:01:06;;;;;;;4.82;2.28;;;25.10;86.70;;;;;;5110861;28;20641;-70
2022/07/09 09:03:32;;;;;;;6.30;2.17;;;25.20;86.80;;;;;;5109809;27;20043;-63
2022/07/09 09:06:04;;;;;;;6.20;2.22;;;25.60;87.10;;;;;;5104913;28;20489;-67
2022/07/09 09:08:37;;;;;;;6.75;2.03;;;25.00;82.80;;;;;;5092005;28;20431;-71
2022/07/09 09:11:04;;;;;;;4.57;2.30;;;25.50;84.40;;;;;;5094198;28;20040;-70
2022/07/09 09:13:30;;;;;;;4.72;2.10;;;25.60;84.20;;;;;;5075868;28;20109;-67
2022/07/09 09:16:06;;;;;;;5.18;2.20;;;25.30;83.90;;;;;;5091292;28;20052;-71
2022/07/09 09:18:36;;;;;;;4.60;1.90;;;25.50;84.20;;;;;;5076580;28;20071;-65
2022/07/09 09:21:06;;;;;;;3.65;2.10;;;25.20;83.80;;;;;;5076071;28;20036;-69
2022/07/09 09:23:46;;;;;;;4.25;2.05;;;25.60;84.00;;;;;;5076292;28;20048;-71
2022/07/09 09:26:20;;;;;;;3.40;2.00;;;25.40;86.20;;;;;;5074325;28;20134;-68
2022/07/09 09:29:07;;;;;;;4.10;2.10;;;25.60;86.30;;;;;;5094413;28;20076;-71
2022/07/09 09:31:37;;;;;;;3.83;1.90;;;25.50;83.60;;;;;;5094313;28;20047;-71
2022/07/09 09:34:09;;;;;;;4.88;1.90;;;25.50;83.60;;;;;;5094668;28;20052;-68
2022/07/09 09:36:44;;;;;;;5.68;2.00;;;25.70;83.40;;;;;;5092796;28;20489;-71
2022/07/09 09:39:16;;;;;;;4.30;2.00;;;25.40;83.30;;;;;;5094491;28;20071;-71
2022/07/09 09:41:50;;;;;;;3.75;1.83;;;25.70;83.60;;;;;;5087629;28;20098;-71
2022/07/09 09:44:18;;;;;;;3.17;1.70;;;25.60;81.90;;;;;;5093015;28;20042;-67
2022/07/09 09:46:44;;;;;;;3.83;1.95;;;25.80;83.30;;;;;;5093443;28;20052;-71
2022/07/09 09:49:12;;;;;;;5.13;2.00;;;25.80;85.60;;;;;;5093787;28;20440;-68
2022/07/09 09:51:59;;;;;;;4.90;2.00;;;25.60;83.00;;;;;;5093263;28;20565;-69
2022/07/09 09:54:25;;;;;;;4.43;2.15;;;25.70;81.50;;;;;;5073975;28;20090;-71
2022/07/09 09:56:51;;;;;;;4.82;2.17;;;25.50;82.60;;;;;;5073347;28;20486;-71
2022/07/09 09:59:17;;;;;;;4.75;2.10;;;25.70;82.40;;;;;;5071491;28;20048;-71
2022/07/09 10:01:43;;;;;;;5.53;2.17;;;25.70;82.60;;;;;;5092937;28;20092;-71
2022/07/09 10:04:10;;;;;;;4.32;1.92;;;25.50;82.70;;;;;;5093156;28;20036;-71
2022/07/09 10:06:36;;;;;;;4.97;1.92;;;25.70;82.90;;;;;;5075754;28;20052;-70
2022/07/09 10:09:07;;;;;;;4.15;1.83;;;25.70;82.70;;;;;;5069182;28;20047;-70
2022/07/09 10:11:48;;;;;;;3.08;1.60;;;25.80;83.00;;;;;;5090148;28;20535;-68
2022/07/09 10:14:23;;;;;;;3.80;1.90;;;25.70;82.70;;;;;;5092658;28;20432;-70
2022/07/09 10:16:49;;;;;;;5.05;1.70;;;25.60;82.70;;;;;;5093103;28;20052;-62
2022/07/09 10:19:33;;;;;;;4.88;1.90;;;25.70;82.30;;;;;;5092754;28;20466;-61
2022/07/09 10:21:59;;;;;;;4.03;1.85;;;25.40;82.40;;;;;;5092321;28;20051;-70
2022/07/09 10:24:31;;;;;;;4.78;2.08;;;25.50;82.50;;;;;;5094105;28;20060;-71
2022/07/09 10:27:04;;;;;;;3.92;1.73;;;25.60;81.40;;;;;;5093857;28;20405;-61
2022/07/09 10:29:29;;;;;;;5.45;2.42;;;25.90;83.40;;;;;;5092763;28;20181;-61
2022/07/09 10:31:56;;;;;;;5.65;1.90;;;25.70;82.30;;;;;;5093353;28;20093;-61
2022/07/09 10:34:36;;;;;;;3.50;1.65;;;25.70;82.50;;;;;;5068588;28;20447;-62
2022/07/09 10:37:03;;;;;;;4.18;1.73;;;25.70;83.10;;;;;;5072640;28;20386;-62
2022/07/09 10:39:29;;;;;;;6.78;1.92;;;25.80;82.30;;;;;;5072057;28;20045;-61
2022/07/09 10:42:05;;;;;;;6.63;2.38;;;25.60;83.00;;;;;;5074236;28;20045;-63
2022/07/09 10:44:38;;;;;;;5.00;2.05;;;25.50;81.50;;;;;;5091344;28;20048;-61
2022/07/09 10:47:04;;;;;;;;;;;25.60;83.20;;;;;;5093792;28;20528;-70
2022/07/09 10:49:30;;;;;;;5.07;2.05;;;25.60;83.00;;;;;;5093373;28;19927;-62
2022/07/09 10:51:57;;;;;;;5.32;1.90;;;25.80;82.60;;;;;;5092482;28;20044;-62
2022/07/09 10:54:23;;;;;;;5.63;1.85;;;25.60;83.00;;;;;;5093166;28;20136;-61
2022/07/09 10:56:49;;;;;;;4.80;1.90;;;25.30;82.50;;;;;;5080213;28;20500;-61
2022/07/09 10:59:18;;;;;;;4.57;1.90;;;25.40;85.60;;;;;;5038958;28;20044;-61
2022/07/09 11:01:43;;;;;;;4.53;1.85;;;25.30;82.70;;;;;;5055573;28;20044;-62
2022/07/09 11:04:11;;;;;;;5.32;1.90;;;25.50;82.80;;;;;;5084284;28;20473;-61
2022/07/09 11:06:47;;;;;;;4.13;1.80;;;25.60;85.80;;;;;;5094183;28;20123;-60
2022/07/09 11:09:13;;;;;;;3.40;1.60;;;25.40;82.90;;;;;;5094733;28;20182;-60
2022/07/09 11:11:42;;;;;;;5.00;2.00;;;25.40;85.80;;;;;;5096347;28;21622;-61
2022/07/09 11:14:09;;;;;;;4.03;1.60;;;25.50;82.80;;;;;;5097416;28;20165;-62
2022/07/09 11:16:35;;;;;;;5.05;1.80;;;25.60;82.80;;;;;;5096665;28;20043;-62
2022/07/09 11:19:18;;;;;;;4.53;1.80;;;25.30;82.60;;;;;;5095872;28;20042;-60
2022/07/09 11:21:44;;;;;;;5.38;2.03;;;25.70;85.60;;;;;;5078868;28;20087;-61
2022/07/09 11:24:19;;;;;;;5.22;1.77;;;25.60;85.30;;;;;;5095661;28;20059;-65
2022/07/09 11:26:45;;;;;;;4.35;1.60;;;25.70;83.10;;;;;;5097372;28;20051;-60
2022/07/09 11:29:11;;;;;;;4.78;1.83;;;25.40;85.40;;;;;;5088464;28;20040;-61
2022/07/09 11:31:37;;;;;;;6.75;2.08;;;25.50;81.80;;;;;;5076471;28;20462;-62
2022/07/09 11:34:12;;;;;;;4.95;1.65;;;25.60;85.10;;;;;;5066131;28;20043;-60
2022/07/09 11:36:51;;;;;;;7.25;2.45;;;25.70;81.30;;;;;;5064088;28;20100;-69
2022/07/09 11:39:24;;;;;;;5.35;1.83;;;25.50;85.10;;;;;;5095956;28;20383;-65
2022/07/09 11:41:49;;;;;;;5.78;1.80;;;25.70;82.70;;;;;;5089633;28;20115;-61
2022/07/09 11:44:22;;;;;;;4.43;1.55;;;25.70;82.20;;;;;;5069058;28;20124;-61
2022/07/09 11:47:06;;;;;;;6.03;1.90;;;25.70;82.40;;;;;;5095559;28;20052;-62
2022/07/09 11:49:39;;;;;;;5.32;2.00;;;25.50;84.90;;;;;;5092542;28;20047;-70
2022/07/09 11:52:25;;;;;;;4.30;1.85;;;25.60;82.60;;;;;;5092309;28;20048;-71
2022/07/09 11:54:56;;;;;;;9.88;2.00;;;25.60;82.40;;;;;;5081663;28;20047;-61
2022/07/09 11:57:22;;;;;;;11.18;2.25;;;25.70;82.40;;;;;;5086808;28;20485;-61
2022/07/09 11:59:47;;;;;;;5.00;1.83;;;25.70;82.00;;;;;;5081389;28;20033;-62
2022/07/09 12:02:25;;;;;;;6.28;2.05;;;25.70;81.80;;;;;;5095499;28;20050;-62
2022/07/09 12:04:51;;;;;;;9.23;2.58;;;25.60;80.90;;;;;;5096112;28;20040;-62
2022/07/09 12:07:16;;;;;;;5.53;1.67;;;26.00;82.10;;;;;;5096295;28;20051;-61
2022/07/09 12:09:42;;;;;;;5.57;1.70;;;25.90;85.50;;;;;;5096403;28;20044;-62
2022/07/09 12:12:08;;;;;;;6.32;1.73;;;25.80;82.20;;;;;;5096381;28;20097;-61
2022/07/09 12:14:34;;;;;;;4.55;1.80;;;25.60;84.90;;;;;;5095804;28;20083;-65
2022/07/09 12:16:59;;;;;;;4.72;1.75;;;25.50;81.70;;;;;;5095090;28;20080;-64
2022/07/09 12:19:25;;;;;;;4.78;1.85;;;25.70;82.10;;;;;;5095595;28;20036;-63
2022/07/09 12:21:51;;;;;;;5.40;1.88;;;25.60;81.70;;;;;;5095089;28;20044;-62
2022/07/09 12:24:17;;;;;;;6.78;2.13;;;25.70;82.10;;;;;;5075965;28;20134;-62
2022/07/09 12:26:42;;;;;;;6.10;1.90;;;25.60;81.70;;;;;;5095450;28;20051;-65
2022/07/09 12:29:08;;;;;;;5.18;1.70;;;25.70;81.90;;;;;;5096059;28;20048;-65
2022/07/09 12:31:37;;;;;;;8.10;2.10;;;25.60;81.80;;;;;;5095916;28;20397;-62
2022/07/09 12:34:04;;;;;;;5.47;2.20;;;25.70;81.90;;;;;;5060191;28;20044;-63
2022/07/09 12:36:30;;;;;;;8.52;2.00;;;25.60;81.70;;;;;;5083085;28;20118;-63
2022/07/09 12:38:56;;;;;;;4.72;1.58;;;25.60;82.10;;;;;;5095304;28;20044;-63
2022/07/09 12:41:21;;;;;;;7.35;1.73;;;25.70;81.50;;;;;;5095838;28;20084;-63
2022/07/09 12:43:47;;;;;;;7.15;1.80;;;25.60;81.20;;;;;;5095763;28;20136;-61
2022/07/09 12:46:13;;;;;;;4.57;1.88;;;25.50;81.20;;;;;;5095656;28;20039;-62
2022/07/09 12:48:38;;;;;;;6.82;1.80;;;25.50;81.00;;;;;;5094923;28;20036;-62